Time;durP1;ratioP1;P1;durP2;ratioP2;P2;SDS_P1;SDS_P2;PMS_P1;PMS_P2;Temp;Humidity;BMP_temperature;BMP_pressure;BME280_temperature;BME280_humidity;BME280_pressure;Samples;Min_cycle;Max_cycle;Signal;HPM_P1;HPM_P2
2022/05/10 00:01:44;;;;;;;1.90;1.57;;;;;;;15.08;56.60;101839.63;5034265;28;20454;-73
2022/05/10 00:04:12;;;;;;;2.30;1.63;;;;;;;15.06;56.07;101844.56;5033961;28;21002;-73
2022/05/10 00:06:41;;;;;;;2.97;1.90;;;;;;;15.01;56.46;101833.75;5034159;28;20450;-73
2022/05/10 00:09:09;;;;;;;4.70;2.20;;;;;;;14.94;55.91;101845.03;5034169;28;20450;-73
2022/05/10 00:11:36;;;;;;;3.30;2.10;;;;;;;14.85;55.12;101844.91;5034113;28;20466;-74
2022/05/10 00:14:03;;;;;;;7.97;1.90;;;;;;;14.74;55.30;101845.38;5034073;28;20451;-73
2022/05/10 00:16:34;;;;;;;4.90;1.87;;;;;;;14.67;54.96;101843.03;5033714;28;21020;-73
2022/05/10 00:19:01;;;;;;;2.30;1.67;;;;;;;14.63;55.30;101833.84;5034080;28;20467;-73
2022/05/10 00:21:27;;;;;;;2.77;1.30;;;;;;;14.53;56.56;101831.28;5033949;28;20442;-72
2022/05/10 00:23:53;;;;;;;7.03;1.93;;;;;;;14.44;56.91;101827.56;5033920;28;20447;-73
2022/05/10 00:26:20;;;;;;;2.33;1.73;;;;;;;14.44;57.66;101822.94;5033865;28;20439;-71
2022/05/10 00:28:46;;;;;;;2.30;1.73;;;;;;;14.42;58.40;101818.88;5033737;28;20485;-68
2022/05/10 00:31:13;;;;;;;3.20;2.23;;;;;;;14.43;58.86;101820.47;5033806;28;20450;-70
2022/05/10 00:33:41;;;;;;;8.50;2.00;;;;;;;14.43;58.76;101815.84;5033714;28;20447;-69
2022/05/10 00:36:12;;;;;;;3.43;1.87;;;;;;;14.45;58.79;101823.75;5033529;28;20490;-69
2022/05/10 00:38:41;;;;;;;3.73;2.33;;;;;;;14.41;58.95;101809.09;5033861;28;20463;-69
2022/05/10 00:41:17;;;;;;;3.90;1.40;;;;;;;14.39;58.83;101812.13;5033182;28;20435;-69
2022/05/10 00:43:47;;;;;;;2.23;1.43;;;;;;;14.38;59.20;101807.75;5033618;28;20423;-69
2022/05/10 00:46:18;;;;;;;2.27;1.37;;;;;;;14.38;58.98;101803.09;5033238;28;20905;-69
2022/05/10 00:48:51;;;;;;;3.43;2.30;;;;;;;14.35;59.05;101792.81;5033489;28;20466;-70
2022/05/10 00:51:25;;;;;;;3.33;1.97;;;;;;;14.36;59.09;101796.34;5033565;28;20861;-70
2022/05/10 00:53:59;;;;;;;4.43;2.07;;;;;;;14.31;59.59;101788.25;5033482;28;20427;-69
2022/05/10 00:56:34;;;;;;;13.93;2.97;;;;;;;14.29;59.29;101782.28;5033337;28;20469;-70
2022/05/10 00:59:05;;;;;;;3.07;1.97;;;;;;;14.27;59.29;101785.31;5033377;28;20430;-70
2022/05/10 01:01:34;;;;;;;4.00;1.93;;;;;;;14.28;59.12;101784.19;5033364;28;20423;-70
2022/05/10 01:04:14;;;;;;;15.50;2.43;;;;;;;14.27;59.42;101779.84;5033289;28;20451;-69
2022/05/10 01:06:47;;;;;;;3.20;1.90;;;;;;;14.27;59.70;101776.31;5033268;28;20423;-70
2022/05/10 01:09:20;;;;;;;2.77;1.57;;;;;;;14.28;59.73;101770.56;5033316;28;20449;-69
2022/05/10 01:11:51;;;;;;;3.33;2.50;;;;;;;14.26;61.06;101767.34;5033187;28;20481;-70
2022/05/10 01:14:23;;;;;;;4.70;2.90;;;;;;;14.11;58.92;101770.28;5032872;28;20432;-69
2022/05/10 01:16:49;;;;;;;4.87;2.83;;;;;;;14.05;57.80;101755.94;5032531;28;20996;-69
2022/05/10 01:19:17;;;;;;;9.10;2.43;;;;;;;14.04;57.37;101758.97;5033144;28;20438;-71
2022/05/10 01:22:01;;;;;;;3.70;2.10;;;;;;;13.94;57.41;101751.72;5033104;28;20465;-70
2022/05/10 01:24:49;;;;;;;2.97;2.10;;;;;;;13.75;57.98;101754.44;5033185;28;20419;-71
2022/05/10 01:27:31;;;;;;;4.17;2.00;;;;;;;13.78;59.03;101750.34;5032988;28;20467;-71
2022/05/10 01:30:05;;;;;;;7.47;2.90;;;;;;;13.78;59.09;101751.16;5033114;28;20434;-70
2022/05/10 01:35:25;;;;;;;4.80;1.70;;;;;;;13.85;60.04;101739.88;5032770;28;20406;-71
2022/05/10 01:37:58;;;;;;;3.10;2.03;;;;;;;13.86;60.16;101742.31;5033113;28;20513;-71
2022/05/10 01:40:31;;;;;;;17.37;2.07;;;;;;;13.94;59.89;101746.28;5032907;28;20431;-71
2022/05/10 01:43:03;;;;;;;2.40;2.03;;;;;;;13.96;60.01;101746.81;5033018;28;20428;-70
2022/05/10 01:45:36;;;;;;;3.43;2.17;;;;;;;13.96;59.99;101746.81;5032964;28;20470;-70
2022/05/10 01:48:05;;;;;;;4.60;2.27;;;;;;;13.93;60.10;101749.31;5032857;28;20458;-71
2022/05/10 01:50:39;;;;;;;2.90;2.40;;;;;;;13.96;59.52;101751.44;5032816;28;20439;-70
2022/05/10 01:53:08;;;;;;;6.30;2.17;;;;;;;13.97;59.43;101751.13;5032895;28;20462;-71
2022/05/10 01:55:37;;;;;;;5.67;2.80;;;;;;;13.96;60.07;101743.28;5036274;28;20483;-71
2022/05/10 01:58:08;;;;;;;5.43;2.30;;;;;;;13.91;60.09;101746.06;5036596;28;20455;-70
2022/05/10 02:00:38;;;;;;;12.63;3.53;;;;;;;13.88;60.35;101745.53;5036552;28;20447;-70
2022/05/10 02:03:12;;;;;;;7.83;2.17;;;;;;;13.92;59.94;101743.06;5036563;28;20504;-70
2022/05/10 02:05:46;;;;;;;6.07;1.77;;;;;;;13.91;60.92;101738.72;5036590;28;20787;-71
2022/05/10 02:08:22;;;;;;;3.30;2.03;;;;;;;13.86;59.58;101736.88;5036490;28;20450;-70
2022/05/10 02:10:52;;;;;;;6.27;1.93;;;;;;;13.77;58.54;101730.47;5036524;28;20429;-71
2022/05/10 02:13:25;;;;;;;4.20;2.77;;;;;;;13.67;58.25;101727.88;5036056;28;20906;-70
2022/05/10 02:15:56;;;;;;;2.63;1.80;;;;;;;13.60;58.23;101732.88;5036039;28;20980;-67
2022/05/10 02:18:29;;;;;;;3.17;1.60;;;;;;;13.61;59.60;101727.13;5035882;28;20474;-71
2022/05/10 02:21:02;;;;;;;4.97;1.93;;;;;;;13.60;60.20;101727.44;5036278;28;20430;-70
2022/05/10 02:23:33;;;;;;;3.73;2.30;;;;;;;13.63;59.76;101730.41;5036185;28;20424;-73
2022/05/10 02:26:07;;;;;;;4.00;1.90;;;;;;;13.71;59.36;101722.66;5036162;28;20423;-72
2022/05/10 02:28:39;;;;;;;5.80;2.50;;;;;;;13.76;59.36;101723.38;5035648;28;20466;-72
2022/05/10 02:31:12;;;;;;;16.03;2.53;;;;;;;13.75;59.81;101721.78;5036135;28;20457;-72
2022/05/10 02:33:40;;;;;;;3.70;2.70;;;;;;;13.78;60.19;101714.94;5036016;28;20428;-72
2022/05/10 02:36:06;;;;;;;7.53;2.40;;;;;;;13.73;60.28;101715.03;5035567;28;20996;-72
2022/05/10 02:38:35;;;;;;;3.97;2.50;;;;;;;13.74;59.55;101709.25;5035813;28;20463;-72
2022/05/10 02:41:05;;;;;;;8.27;2.70;;;;;;;13.72;59.71;101714.19;5035856;28;20443;-71
2022/05/10 02:43:35;;;;;;;5.20;2.57;;;;;;;13.70;59.59;101712.88;5035844;28;20426;-72
2022/05/10 02:46:02;;;;;;;6.00;2.30;;;;;;;13.59;58.10;101713.03;5035940;28;20443;-72
2022/05/10 02:48:33;;;;;;;2.20;1.70;;;;;;;13.60;58.28;101700.22;5035686;28;20835;-72
2022/05/10 02:51:00;;;;;;;3.90;2.37;;;;;;;13.51;58.40;101701.97;5035434;28;20905;-72
2022/05/10 02:53:27;;;;;;;4.07;2.50;;;;;;;13.41;58.15;101697.47;5035614;28;20450;-72
2022/05/10 02:55:56;;;;;;;2.37;1.67;;;;;;;13.36;58.83;101690.16;5035555;28;20564;-72
2022/05/10 02:58:31;;;;;;;2.63;2.10;;;;;;;13.40;59.83;101695.03;5035473;28;20471;-73
2022/05/10 03:01:05;;;;;;;5.83;2.07;;;;;;;13.45;59.86;101697.69;5035522;28;20419;-72
2022/05/10 03:03:34;;;;;;;4.53;2.87;;;;;;;13.47;60.22;101693.59;5035484;28;20427;-73
2022/05/10 03:06:01;;;;;;;4.87;2.53;;;;;;;13.50;60.12;101693.00;5034793;28;20966;-72
2022/05/10 03:08:27;;;;;;;4.33;2.77;;;;;;;13.56;59.92;101691.03;5035244;28;20459;-73
2022/05/10 03:10:54;;;;;;;3.53;2.83;;;;;;;13.58;59.37;101686.88;5035316;28;20454;-70
2022/05/10 03:13:20;;;;;;;3.70;1.67;;;;;;;13.63;59.30;101683.28;5035265;28;20446;-70
2022/05/10 03:15:47;;;;;;;3.97;2.30;;;;;;;13.62;60.39;101684.38;5035179;28;20443;-70
2022/05/10 03:18:13;;;;;;;5.60;2.70;;;;;;;13.63;60.05;101684.13;5034811;28;20479;-70
2022/05/10 03:20:41;;;;;;;2.50;1.73;;;;;;;13.67;59.56;101689.75;5035142;28;20443;-70
2022/05/10 03:23:08;;;;;;;4.20;2.30;;;;;;;13.64;59.79;101684.91;5035081;28;20439;-71
2022/05/10 03:25:35;;;;;;;3.07;2.20;;;;;;;13.68;58.74;101685.13;5035032;28;20446;-71
2022/05/10 03:28:02;;;;;;;2.63;2.27;;;;;;;13.68;59.32;101685.94;5034984;28;20463;-70
2022/05/10 03:30:29;;;;;;;6.17;2.53;;;;;;;13.63;60.30;101694.16;5034911;28;20466;-70
2022/05/10 03:32:56;;;;;;;7.23;2.80;;;;;;;13.64;59.35;101679.47;5034559;28;20450;-70
2022/05/10 03:35:23;;;;;;;4.83;2.20;;;;;;;13.61;59.72;101685.50;5034900;28;20442;-70
2022/05/10 03:37:51;;;;;;;3.87;2.30;;;;;;;13.59;61.17;101683.06;5034634;28;20490;-70
2022/05/10 03:40:17;;;;;;;12.63;2.97;;;;;;;13.54;60.69;101679.59;5034683;28;20531;-71
2022/05/10 03:42:45;;;;;;;4.10;2.00;;;;;;;13.53;59.12;101675.25;5034680;28;20525;-71
2022/05/10 03:45:12;;;;;;;4.80;2.30;;;;;;;13.43;58.07;101687.09;5034292;28;20827;-70
2022/05/10 03:47:39;;;;;;;5.77;2.53;;;;;;;13.41;59.19;101678.41;5034576;28;20550;-71
2022/05/10 03:50:08;;;;;;;4.57;2.60;;;;;;;13.34;59.21;101681.50;5034571;28;20439;-71
2022/05/10 03:52:35;;;;;;;3.10;2.17;;;;;;;13.29;58.95;101672.59;5034556;28;20513;-71
2022/05/10 03:55:03;;;;;;;5.73;2.87;;;;;;;13.31;60.17;101676.63;5034199;28;20944;-70
2022/05/10 03:57:30;;;;;;;3.17;2.07;;;;;;;13.36;60.75;101673.03;5034249;28;20924;-70
2022/05/10 03:59:56;;;;;;;2.63;1.80;;;;;;;13.41;61.13;101664.78;5034358;28;20477;-70
2022/05/10 04:02:23;;;;;;;7.03;2.60;;;;;;;13.36;61.20;101665.69;5034255;28;20454;-70
2022/05/10 04:04:49;;;;;;;3.83;2.00;;;;;;;13.42;61.91;101663.72;5034290;28;20816;-70
2022/05/10 04:07:16;;;;;;;8.53;3.17;;;;;;;13.45;62.79;101656.88;5034128;28;20463;-72
2022/05/10 04:09:42;;;;;;;4.67;3.07;;;;;;;13.45;62.72;101659.59;5034185;28;20493;-72
2022/05/10 04:12:10;;;;;;;3.70;2.60;;;;;;;13.49;62.64;101663.34;5034135;28;20443;-72
2022/05/10 04:14:37;;;;;;;4.40;2.40;;;;;;;13.55;62.47;101651.28;5034074;28;20443;-72
2022/05/10 04:17:04;;;;;;;3.53;1.80;;;;;;;13.56;62.68;101661.88;5033011;28;20556;-72
2022/05/10 04:19:30;;;;;;;7.03;2.67;;;;;;;13.61;62.54;101650.09;5034089;28;20416;-71
2022/05/10 04:21:57;;;;;;;7.60;3.20;;;;;;;13.62;61.89;101655.25;5035310;28;20449;-71
2022/05/10 04:24:24;;;;;;;3.57;2.43;;;;;;;13.63;62.66;101650.59;5033890;28;20498;-71
2022/05/10 04:26:50;;;;;;;8.67;2.47;;;;;;;13.67;63.49;101645.38;5033785;28;20446;-71
2022/05/10 04:29:18;;;;;;;4.87;2.17;;;;;;;13.66;63.62;101644.56;5033827;28;20439;-71
2022/05/10 04:31:45;;;;;;;5.03;2.30;;;;;;;13.63;63.25;101646.00;5033805;28;20450;-71
2022/05/10 04:34:11;;;;;;;2.60;2.40;;;;;;;13.68;62.90;101636.94;5033828;28;20443;-71
2022/05/10 04:36:38;;;;;;;2.00;1.80;;;;;;;13.75;62.27;101639.28;5033589;28;20483;-71
2022/05/10 04:39:05;;;;;;;7.20;2.60;;;;;;;13.76;62.46;101638.16;5033415;28;20979;-71
2022/05/10 04:41:32;;;;;;;5.03;2.63;;;;;;;13.79;60.76;101627.50;5033617;28;20443;-71
2022/05/10 04:44:00;;;;;;;5.40;3.33;;;;;;;13.76;60.16;101630.00;5033603;28;20526;-71
2022/05/10 04:46:30;;;;;;;3.10;2.40;;;;;;;13.73;60.28;101636.06;5033567;28;20447;-71
2022/05/10 04:48:57;;;;;;;4.53;2.87;;;;;;;13.71;60.31;101639.06;5033563;28;20471;-71
2022/05/10 04:51:24;;;;;;;3.97;2.90;;;;;;;13.72;60.33;101643.38;5033496;28;20862;-71
2022/05/10 04:53:50;;;;;;;3.47;2.40;;;;;;;13.77;61.48;101640.59;5033195;28;20959;-71
2022/05/10 04:56:17;;;;;;;4.57;2.63;;;;;;;13.86;62.45;101632.56;5032998;28;20967;-72
2022/05/10 04:58:44;;;;;;;8.73;2.73;;;;;;;13.94;63.35;101633.78;5033252;28;20466;-71
2022/05/10 05:01:13;;;;;;;6.93;3.60;;;;;;;14.02;62.38;101646.72;5033370;28;20529;-71
2022/05/10 05:03:44;;;;;;;4.23;3.10;;;;;;;14.12;62.05;101636.50;5033660;28;20447;-71
2022/05/10 05:06:11;;;;;;;2.80;2.10;;;;;;;14.18;62.44;101645.38;5033352;28;20435;-72
2022/05/10 05:08:37;;;;;;;6.73;3.07;;;;;;;14.20;63.33;101640.41;5033206;28;20459;-71
2022/05/10 05:11:04;;;;;;;10.10;2.67;;;;;;;14.32;62.56;101642.69;5033237;28;20447;-69
2022/05/10 05:13:31;;;;;;;3.10;2.43;;;;;;;14.41;61.12;101637.34;5033180;28;20447;-68
2022/05/10 05:15:57;;;;;;;4.30;2.60;;;;;;;14.49;60.20;101639.41;5032899;28;20936;-69
2022/05/10 05:18:24;;;;;;;5.30;2.83;;;;;;;14.54;59.50;101631.13;5032690;28;20486;-70
2022/05/10 05:20:52;;;;;;;4.80;2.27;;;;;;;14.61;59.63;101626.09;5033138;28;20469;-70
2022/05/10 05:23:20;;;;;;;4.10;2.43;;;;;;;14.67;60.08;101627.59;5033089;28;20509;-70
2022/05/10 05:25:47;;;;;;;8.67;2.60;;;;;;;14.77;59.56;101630.13;5033141;28;20435;-70
2022/05/10 05:28:14;;;;;;;3.50;2.77;;;;;;;14.86;59.22;101627.50;5034719;28;20461;-70
2022/05/10 05:30:42;;;;;;;5.40;2.53;;;;;;;14.94;59.29;101626.78;5037194;28;20493;-70
2022/05/10 05:33:09;;;;;;;4.00;3.00;;;;;;;15.03;58.90;101627.66;5037101;28;20450;-70
2022/05/10 05:35:36;;;;;;;4.33;2.40;;;;;;;15.15;58.72;101627.16;5036903;28;20467;-70
2022/05/10 05:38:04;;;;;;;4.10;2.27;;;;;;;15.26;58.29;101635.91;5036715;28;20490;-71
2022/05/10 05:40:31;;;;;;;3.00;2.37;;;;;;;15.34;59.09;101622.34;5037002;28;20439;-70
2022/05/10 05:42:57;;;;;;;6.40;2.07;;;;;;;15.50;58.20;101631.03;5036950;28;20447;-69
2022/05/10 05:45:25;;;;;;;9.40;2.87;;;;;;;15.64;56.96;101637.25;5036617;28;20806;-70
2022/05/10 05:47:52;;;;;;;4.77;2.53;;;;;;;15.75;56.04;101629.63;5036817;28;20458;-69
2022/05/10 05:50:22;;;;;;;8.20;3.00;;;;;;;15.81;56.91;101631.13;5036837;28;20488;-67
2022/05/10 05:52:50;;;;;;;5.03;2.63;;;;;;;15.91;56.69;101638.25;5036648;28;20458;-67
2022/05/10 05:55:19;;;;;;;4.13;2.33;;;;;;;16.02;55.12;101633.34;5036338;28;20933;-70
2022/05/10 05:57:46;;;;;;;2.90;2.17;;;;;;;16.11;55.39;101636.94;5036553;28;20548;-70
2022/05/10 06:00:16;;;;;;;3.30;2.77;;;;;;;16.19;55.43;101635.38;5036593;28;20449;-71
2022/05/10 06:02:43;;;;;;;7.17;2.57;;;;;;;16.25;55.23;101636.88;5036601;28;20466;-72
2022/05/10 06:05:10;;;;;;;6.00;2.83;;;;;;;16.29;54.78;101630.47;5036523;28;20443;-70
2022/05/10 06:07:36;;;;;;;4.43;2.87;;;;;;;16.35;54.35;101633.88;5036439;28;20472;-69
2022/05/10 06:10:04;;;;;;;2.77;2.10;;;;;;;16.37;54.25;101629.69;5036466;28;20450;-69
2022/05/10 06:12:32;;;;;;;3.00;2.13;;;;;;;16.46;55.31;101628.91;5036282;28;20543;-71
2022/05/10 06:15:02;;;;;;;6.30;3.30;;;;;;;16.51;54.95;101631.50;5036102;28;20439;-67
2022/05/10 06:17:29;;;;;;;3.37;2.27;;;;;;;16.57;55.77;101630.25;5035926;28;20920;-67
2022/05/10 06:19:55;;;;;;;3.77;2.03;;;;;;;16.55;56.64;101635.22;5036221;28;20435;-71
2022/05/10 06:22:21;;;;;;;3.73;1.97;;;;;;;16.60;56.34;101624.13;5036200;28;20442;-69
2022/05/10 06:24:48;;;;;;;2.53;1.80;;;;;;;16.62;56.72;101613.72;5036182;28;20447;-69
2022/05/10 06:27:16;;;;;;;11.30;2.70;;;;;;;16.65;55.53;101615.81;5036083;28;20485;-69
2022/05/10 06:29:44;;;;;;;4.27;2.50;;;;;;;16.70;54.42;101618.41;5035797;28;20449;-70
2022/05/10 06:32:11;;;;;;;5.60;2.30;;;;;;;16.70;54.91;101617.59;5036042;28;20447;-70
2022/05/10 06:34:40;;;;;;;3.77;2.17;;;;;;;16.71;54.78;101624.69;5036045;28;20442;-71
2022/05/10 06:38:16;;;;;;;2.23;1.70;;;;;;;16.71;54.77;101611.81;5035856;28;20523;-70
2022/05/10 06:40:05;;;;;;;3.63;1.67;;;;;;;16.70;56.09;101610.19;5034817;28;20447;-71
2022/05/10 06:42:32;;;;;;;4.47;2.43;;;;;;;16.77;55.00;101607.81;5035996;28;20518;-71
2022/05/10 06:45:00;;;;;;;3.70;2.40;;;;;;;16.81;55.92;101608.78;5035793;28;20443;-70
2022/05/10 06:47:26;;;;;;;4.00;2.37;;;;;;;16.87;55.53;101613.00;5035697;28;20459;-71
2022/05/10 06:49:52;;;;;;;3.13;2.00;;;;;;;16.97;54.75;101602.88;5035712;28;20861;-70
2022/05/10 06:52:19;;;;;;;7.27;2.00;;;;;;;17.04;55.14;101595.00;5035292;28;20451;-70
2022/05/10 06:54:46;;;;;;;4.67;2.43;;;;;;;17.15;54.55;101590.84;5035649;28;20442;-71
2022/05/10 06:57:13;;;;;;;2.63;1.73;;;;;;;17.19;54.95;101601.97;5035424;28;20545;-68
2022/05/10 06:59:39;;;;;;;2.73;1.90;;;;;;;17.30;54.85;101589.53;5035543;28;20466;-71
2022/05/10 07:02:07;;;;;;;3.97;2.80;;;;;;;17.43;54.36;101590.53;5035280;28;20999;-71
2022/05/10 07:04:33;;;;;;;4.47;2.07;;;;;;;17.55;54.68;101585.19;5035176;28;21002;-72
2022/05/10 07:07:00;;;;;;;5.23;1.83;;;;;;;17.69;56.40;101588.56;5035396;28;20466;-72
2022/05/10 07:09:26;;;;;;;7.23;2.07;;;;;;;17.74;56.61;101582.13;5034942;28;20831;-69
2022/05/10 07:11:53;;;;;;;3.00;1.83;;;;;;;17.84;55.06;101581.78;5035327;28;20538;-69
2022/05/10 07:14:20;;;;;;;3.87;1.93;;;;;;;17.95;53.27;101580.31;5035341;28;20447;-71
2022/05/10 07:16:47;;;;;;;2.53;1.70;;;;;;;18.11;54.40;101575.13;5035269;28;20556;-70
2022/05/10 07:19:14;;;;;;;4.83;1.93;;;;;;;18.22;54.41;101579.13;5034897;28;20470;-71
2022/05/10 07:21:41;;;;;;;3.50;1.77;;;;;;;18.34;55.77;101579.22;5035167;28;20443;-70
2022/05/10 07:24:08;;;;;;;6.47;1.70;;;;;;;18.44;56.39;101571.75;5035139;28;20447;-69
2022/05/10 07:26:34;;;;;;;4.07;1.87;;;;;;;18.47;52.85;101571.91;5034677;28;20967;-70
2022/05/10 07:29:01;;;;;;;2.40;1.40;;;;;;;18.52;55.24;101571.72;5034722;28;20937;-69
2022/05/10 07:31:27;;;;;;;6.70;2.00;;;;;;;18.61;56.72;101569.75;5034942;28;20450;-70
2022/05/10 07:33:54;;;;;;;4.87;1.90;;;;;;;18.72;57.73;101561.94;5034929;28;20443;-71
2022/05/10 07:36:25;;;;;;;4.37;2.03;;;;;;;18.84;52.73;101566.72;5034472;28;20447;-70
2022/05/10 07:38:51;;;;;;;4.40;2.30;;;;;;;18.97;51.09;101568.41;5034486;28;20525;-70
2022/05/10 07:41:21;;;;;;;2.50;1.60;;;;;;;19.15;51.22;101566.34;5034740;28;20533;-70
2022/05/10 07:43:49;;;;;;;2.53;1.43;;;;;;;19.26;49.11;101559.31;5034618;28;20439;-70
2022/05/10 07:46:16;;;;;;;3.47;1.60;;;;;;;19.46;48.74;101557.69;5034221;28;20960;-71
2022/05/10 07:48:43;;;;;;;3.40;2.00;;;;;;;19.65;49.83;101552.50;5034520;28;20889;-72
2022/05/10 07:51:09;;;;;;;4.17;1.80;;;;;;;19.85;54.05;101556.34;5033522;28;20439;-70
2022/05/10 07:53:37;;;;;;;3.40;1.67;;;;;;;19.99;53.95;101557.97;5033930;28;20451;-70
2022/05/10 07:56:05;;;;;;;2.60;1.80;;;;;;;20.10;52.37;101556.41;5034057;28;20816;-71
2022/05/10 07:58:32;;;;;;;2.23;1.60;;;;;;;20.22;48.50;101558.34;5034023;28;21023;-70
2022/05/10 08:00:59;;;;;;;2.67;1.60;;;;;;;20.29;47.63;101548.38;5034307;28;20530;-71
2022/05/10 08:03:26;;;;;;;5.93;2.20;;;;;;;20.39;47.19;101545.16;5034457;28;20447;-71
2022/05/10 08:05:54;;;;;;;3.30;1.90;;;;;;;20.48;47.80;101544.28;5034379;28;20447;-71
2022/05/10 08:08:21;;;;;;;3.33;1.47;;;;;;;20.52;46.24;101543.25;5033843;28;20463;-70
2022/05/10 08:10:51;;;;;;;2.00;1.20;;;;;;;20.55;46.72;101539.03;5034314;28;20454;-71
2022/05/10 08:13:20;;;;;;;3.63;1.90;;;;;;;20.57;46.94;101544.97;5034190;28;20443;-71
2022/05/10 08:15:47;;;;;;;3.17;1.10;;;;;;;20.56;46.58;101540.63;5034161;28;20450;-71
2022/05/10 08:18:14;;;;;;;11.60;2.17;;;;;;;20.50;48.48;101539.25;5033682;28;20497;-71
2022/05/10 08:20:42;;;;;;;3.83;1.43;;;;;;;20.50;46.38;101542.00;5034112;28;20446;-71
2022/05/10 08:23:11;;;;;;;7.40;1.60;;;;;;;20.58;46.88;101535.56;5034150;28;20446;-71
2022/05/10 08:25:37;;;;;;;1.83;1.40;;;;;;;20.59;46.75;101526.16;5033997;28;20474;-71
2022/05/10 08:28:06;;;;;;;2.57;1.40;;;;;;;20.69;47.57;101522.94;5033976;28;20467;-70
2022/05/10 08:30:32;;;;;;;2.53;1.40;;;;;;;20.82;46.41;101535.53;5033940;28;20479;-70
2022/05/10 08:32:59;;;;;;;1.53;0.90;;;;;;;20.95;45.83;101521.75;5033593;28;20435;-70
2022/05/10 08:35:25;;;;;;;3.83;1.80;;;;;;;21.09;44.67;101527.66;5033810;28;20538;-70
2022/05/10 08:37:52;;;;;;;2.10;1.70;;;;;;;21.18;45.62;101522.81;5033612;28;20494;-70
2022/05/10 08:40:26;;;;;;;1.80;1.60;;;;;;;21.32;47.26;101514.16;5033745;28;20451;-70
2022/05/10 08:42:56;;;;;;;2.40;1.27;;;;;;;21.43;45.71;101512.50;5033685;28;20430;-70
2022/05/10 08:45:25;;;;;;;3.00;1.40;;;;;;;21.53;47.15;101513.97;5033680;28;20439;-70
2022/05/10 08:47:52;;;;;;;2.23;1.60;;;;;;;21.61;46.90;101511.03;5033673;28;20490;-70
2022/05/10 08:50:19;;;;;;;2.23;1.53;;;;;;;21.70;44.68;101510.06;5033299;28;20432;-70
2022/05/10 08:52:48;;;;;;;4.40;1.73;;;;;;;21.73;47.88;101515.66;5033561;28;20443;-69
2022/05/10 08:55:19;;;;;;;4.37;1.60;;;;;;;21.71;45.86;101509.72;5033517;28;20450;-68
2022/05/10 08:57:50;;;;;;;2.10;1.20;;;;;;;21.78;43.95;101507.16;5033727;28;20467;-67
2022/05/10 09:00:26;;;;;;;3.07;1.90;;;;;;;21.90;44.46;101498.75;5033485;28;20450;-69
2022/05/10 09:02:57;;;;;;;12.33;2.10;;;;;;;21.99;45.10;101503.31;5033112;28;20453;-71
2022/05/10 09:05:28;;;;;;;3.70;1.73;;;;;;;22.05;44.95;101499.16;5033406;28;20443;-71
2022/05/10 09:08:05;;;;;;;1.77;1.27;;;;;;;22.09;44.01;101488.97;5033217;28;20868;-71
2022/05/10 09:10:37;;;;;;;1.67;1.10;;;;;;;22.23;43.17;101496.84;5033172;28;20435;-72
2022/05/10 09:13:08;;;;;;;9.17;1.50;;;;;;;22.35;43.08;101491.19;5033094;28;20428;-71
2022/05/10 09:15:37;;;;;;;1.70;1.00;;;;;;;22.35;43.77;101486.47;5033281;28;20443;-71
2022/05/10 09:18:18;;;;;;;2.77;1.30;;;;;;;22.45;42.85;101489.88;5032809;28;20505;-72
2022/05/10 09:20:55;;;;;;;1.97;1.50;;;;;;;22.57;42.92;101482.22;5033536;28;20428;-71
2022/05/10 09:23:30;;;;;;;2.23;1.33;;;;;;;22.72;42.14;101477.84;5033184;28;20434;-71
2022/05/10 09:25:57;;;;;;;7.03;1.83;;;;;;;22.75;42.90;101476.28;5033257;28;20430;-71
2022/05/10 09:28:31;;;;;;;4.30;1.40;;;;;;;22.74;43.55;101480.22;5033002;28;20463;-71
2022/05/10 09:36:56;;;;;;;5.93;1.40;;;;;;;23.15;39.75;101473.19;5032878;28;20497;-71
2022/05/10 09:39:34;;;;;;;1.53;0.80;;;;;;;23.21;39.44;101469.00;5032919;28;20483;-72
2022/05/10 09:42:01;;;;;;;5.23;1.60;;;;;;;23.23;39.99;101469.41;5033013;28;20423;-71
2022/05/10 09:44:29;;;;;;;3.17;1.87;;;;;;;23.32;39.71;101458.91;5032931;28;20520;-72
2022/05/10 09:47:13;;;;;;;1.20;0.80;;;;;;;23.49;39.66;101459.63;5032828;28;20467;-71
2022/05/10 09:49:41;;;;;;;2.43;1.37;;;;;;;23.59;41.34;101459.78;5032829;28;20427;-71
2022/05/10 09:52:17;;;;;;;2.60;1.67;;;;;;;23.60;39.13;101457.84;5032915;28;20473;-71
2022/05/10 09:54:45;;;;;;;2.20;1.20;;;;;;;23.63;38.73;101459.88;5033005;28;20466;-72
2022/05/10 09:57:26;;;;;;;2.40;1.40;;;;;;;23.56;39.28;101452.25;5032761;28;20479;-71
2022/05/10 09:59:53;;;;;;;2.87;1.90;;;;;;;23.65;39.98;101455.59;5032715;28;20470;-72
2022/05/10 10:02:28;;;;;;;6.70;1.37;;;;;;;23.76;41.10;101446.69;5032733;28;20445;-71
2022/05/10 10:04:56;;;;;;;1.63;1.10;;;;;;;23.82;39.55;101439.69;5032706;28;20449;-71
2022/05/10 10:07:25;;;;;;;2.90;1.57;;;;;;;23.87;40.17;101437.38;5032322;28;21047;-71
2022/05/10 10:09:55;;;;;;;3.70;1.23;;;;;;;23.97;39.73;101441.50;5032447;28;20936;-72
2022/05/10 10:12:32;;;;;;;1.20;1.10;;;;;;;24.12;40.71;101432.22;5032644;28;20888;-71
2022/05/10 10:14:59;;;;;;;1.73;1.20;;;;;;;24.22;40.59;101419.72;5033986;28;20827;-72
2022/05/10 10:17:29;;;;;;;1.60;1.40;;;;;;;24.47;40.42;101419.28;5035821;28;20975;-72
2022/05/10 10:20:04;;;;;;;6.30;2.23;;;;;;;24.65;40.28;101423.88;5036206;28;20556;-72
2022/05/10 10:22:39;;;;;;;1.83;1.20;;;;;;;24.76;37.28;101426.00;5036240;28;20411;-72
2022/05/10 10:25:15;;;;;;;7.87;1.67;;;;;;;24.81;39.38;101417.34;5035924;28;20930;-72
2022/05/10 10:27:49;;;;;;;2.40;1.60;;;;;;;24.92;40.40;101418.25;5036160;28;20471;-72
2022/05/10 10:30:23;;;;;;;1.63;1.03;;;;;;;24.88;38.62;101412.69;5036143;28;20427;-72
2022/05/10 10:32:53;;;;;;;3.70;1.80;;;;;;;25.03;39.53;101404.53;5036107;28;20434;-71
2022/05/10 10:35:34;;;;;;;2.07;1.40;;;;;;;25.12;39.53;101402.28;5035697;28;20975;-72
2022/05/10 10:38:11;;;;;;;2.33;1.40;;;;;;;25.18;38.45;101395.19;5036053;28;20829;-72
2022/05/10 10:40:41;;;;;;;1.83;1.47;;;;;;;25.16;38.17;101392.00;5035994;28;20427;-71
2022/05/10 10:43:14;;;;;;;2.77;1.63;;;;;;;25.22;38.49;101386.91;5035946;28;20447;-72
2022/05/10 10:45:43;;;;;;;3.57;1.73;;;;;;;25.30;38.67;101378.28;5036204;28;20427;-72
2022/05/10 10:48:24;;;;;;;2.03;1.43;;;;;;;25.50;38.89;101384.41;5035648;28;20472;-71
2022/05/10 10:50:51;;;;;;;1.90;1.37;;;;;;;25.65;38.64;101375.00;5035693;28;20431;-72
2022/05/10 10:53:20;;;;;;;2.20;1.70;;;;;;;25.57;37.02;101373.34;5035661;28;20443;-69
2022/05/10 10:55:59;;;;;;;4.17;1.60;;;;;;;25.62;38.27;101367.44;5035551;28;20462;-68
2022/05/10 10:58:33;;;;;;;1.60;1.20;;;;;;;25.85;40.63;101370.03;5035079;28;20516;-68
2022/05/10 11:01:13;;;;;;;4.23;1.90;;;;;;;26.12;38.53;101361.47;5035673;28;20454;-71
2022/05/10 11:03:50;;;;;;;2.60;1.10;;;;;;;26.50;38.50;101362.03;5035453;28;20424;-72
2022/05/10 11:06:23;;;;;;;1.53;1.20;;;;;;;26.81;37.43;101357.78;5035319;28;20431;-71
2022/05/10 11:09:03;;;;;;;1.50;1.30;;;;;;;26.91;36.15;101357.00;5035223;28;20463;-71
2022/05/10 11:11:41;;;;;;;3.73;2.00;;;;;;;26.99;34.84;101358.59;5035355;28;20438;-72
2022/05/10 11:14:23;;;;;;;2.20;1.40;;;;;;;27.21;35.21;101358.66;5034965;28;20926;-71
2022/05/10 11:17:02;;;;;;;1.73;1.03;;;;;;;27.38;34.74;101347.53;5034912;28;20428;-71
2022/05/10 11:19:52;;;;;;;3.90;1.67;;;;;;;27.34;33.77;101348.72;5034996;28;20471;-72
2022/05/10 11:22:37;;;;;;;2.90;1.70;;;;;;;27.09;35.56;101341.19;5035100;28;20424;-72
2022/05/10 11:25:14;;;;;;;1.90;1.63;;;;;;;27.49;36.78;101332.81;5034813;28;20455;-72
2022/05/10 11:28:01;;;;;;;1.73;1.43;;;;;;;27.88;35.41;101330.00;5034533;28;20470;-72
2022/05/10 11:30:35;;;;;;;3.67;1.50;;;;;;;27.98;34.96;101331.97;5018193;28;20991;-72
2022/05/10 11:33:13;;;;;;;3.37;1.17;;;;;;;28.00;33.76;101331.56;5034835;28;20432;-71
2022/05/10 11:35:55;;;;;;;1.90;1.63;;;;;;;28.22;33.46;101330.28;5034928;28;20454;-72
2022/05/10 11:38:36;;;;;;;1.60;1.10;;;;;;;28.90;33.47;101327.16;5034296;28;21021;-72
2022/05/10 11:41:08;;;;;;;2.10;1.50;;;;;;;29.33;34.09;101322.06;5034678;28;20430;-72
2022/05/10 11:43:55;;;;;;;2.47;1.60;;;;;;;29.86;31.84;101317.19;5034696;28;20455;-72
2022/05/10 11:46:43;;;;;;;2.70;1.47;;;;;;;29.79;30.78;101312.47;5034469;28;20415;-71